Time;durP1;ratioP1;P1;durP2;ratioP2;P2;SDS_P1;SDS_P2;PMS_P1;PMS_P2;Temp;Humidity;BMP_temperature;BMP_pressure;BME280_temperature;BME280_humidity;BME280_pressure;Samples;Min_cycle;Max_cycle;Signal;HPM_P1;HPM_P2
2023/03/03 00:00:50;;;;;;;74.10;58.00;;;;;;;1.46;69.40;100931.08;113217;1239;21972;-80
2023/03/03 00:03:24;;;;;;;76.80;59.40;;;;;;;1.43;69.51;100918.55;112782;1239;23893;-81
2023/03/03 00:05:53;;;;;;;80.70;60.10;;;;;;;1.42;69.54;100908.09;113188;1239;22723;-81
2023/03/03 00:08:30;;;;;;;80.10;62.70;;;;;;;1.40;69.48;100906.17;113067;1240;22376;-81
2023/03/03 00:11:04;;;;;;;81.20;58.50;;;;;;;1.39;69.68;100901.53;113001;1240;21985;-81
2023/03/03 00:13:55;;;;;;;86.50;62.30;;;;;;;1.37;69.81;100900.98;112848;1239;22343;-81
2023/03/03 00:16:36;;;;;;;83.10;59.60;;;;;;;1.33;69.99;100898.73;112849;1239;23679;-80
2023/03/03 00:19:18;;;;;;;88.10;61.70;;;;;;;1.33;70.06;100890.51;113077;1239;22110;-82
2023/03/03 00:21:52;;;;;;;88.20;63.30;;;;;;;1.35;70.29;100887.44;112526;1239;21963;-81
2023/03/03 00:24:24;;;;;;;89.60;62.50;;;;;;;1.37;70.11;100883.67;113081;1239;21951;-80
2023/03/03 00:27:00;;;;;;;;;;;;;;;1.34;70.08;100874.56;113151;1233;23988;-80
2023/03/03 00:29:38;;;;;;;92.90;61.10;;;;;;;1.24;70.27;100871.05;113859;1232;21961;-81
2023/03/03 00:32:30;;;;;;;93.50;65.10;;;;;;;1.21;70.46;100868.11;113595;1232;23763;-81
2023/03/03 00:35:26;;;;;;;87.30;59.80;;;;;;;1.23;70.57;100871.21;113659;1232;21962;-79
2023/03/03 00:38:01;;;;;;;81.10;59.90;;;;;;;1.20;70.45;100867.42;113813;1232;21952;-81
2023/03/03 00:40:40;;;;;;;83.20;62.70;;;;;;;1.16;70.49;100856.58;113247;1238;21925;-80
2023/03/03 00:43:33;;;;;;;87.60;61.30;;;;;;;1.15;70.55;100850.58;112172;1245;23022;-81
2023/03/03 00:46:04;;;;;;;88.30;63.20;;;;;;;1.13;70.56;100855.86;112489;1245;21978;-81
2023/03/03 00:48:36;;;;;;;86.40;63.70;;;;;;;1.07;70.54;100857.70;112396;1245;22434;-80
2023/03/03 00:51:26;;;;;;;88.40;63.30;;;;;;;1.03;70.69;100860.91;112634;1245;22342;-80
2023/03/03 00:53:58;;;;;;;;;;;;;;;1.00;70.73;100856.77;112414;1245;21962;-80
2023/03/03 00:56:30;;;;;;;81.20;54.40;;;;;;;0.89;71.00;100850.33;111939;1251;21961;-80
2023/03/03 00:59:01;;;;;;;80.90;57.00;;;;;;;0.87;71.15;100845.85;111705;1251;23034;-80
2023/03/03 01:01:30;;;;;;;77.30;54.40;;;;;;;0.91;71.20;100841.60;112019;1244;21961;-81
2023/03/03 01:04:06;;;;;;;72.40;51.30;;;;;;;0.91;71.13;100836.13;112341;1244;21974;-79
2023/03/03 01:06:40;;;;;;;70.80;50.30;;;;;;;0.85;70.96;100841.38;113139;1239;23774;-79
2023/03/03 01:09:09;;;;;;;67.90;49.30;;;;;;;0.79;71.00;100838.92;113119;1239;23684;-81
2023/03/03 01:11:40;;;;;;;78.30;54.40;;;;;;;0.79;71.22;100843.89;113082;1239;21963;-81
2023/03/03 01:14:09;;;;;;;73.60;52.10;;;;;;;0.83;71.31;100843.58;113223;1232;21918;-80
2023/03/03 01:16:40;;;;;;;78.20;52.60;;;;;;;0.85;71.54;100837.26;112885;1239;21960;-80
2023/03/03 01:19:09;;;;;;;84.10;60.00;;;;;;;0.91;71.46;100839.05;112348;1244;21986;-80
2023/03/03 01:21:38;;;;;;;94.00;62.50;;;;;;;0.90;71.33;100836.96;112339;1244;23480;-82
2023/03/03 01:24:09;;;;;;;99.90;64.80;;;;;;;0.87;71.36;100837.45;112597;1244;21971;-81
2023/03/03 01:26:41;;;;;;;95.60;62.80;;;;;;;0.83;71.42;100838.11;112314;1244;21958;-80
2023/03/03 01:29:10;;;;;;;79.40;55.50;;;;;;;0.81;71.58;100837.57;112396;1244;21978;-80
2023/03/03 01:31:39;;;;;;;82.60;56.80;;;;;;;0.80;71.68;100837.90;112292;1244;23701;-81
2023/03/03 01:34:11;;;;;;;84.70;57.30;;;;;;;0.79;71.81;100830.87;111849;1245;23583;-79
2023/03/03 01:36:40;;;;;;;88.30;58.20;;;;;;;0.75;71.73;100834.08;112432;1239;22016;-79
2023/03/03 01:39:11;;;;;;;88.40;59.50;;;;;;;0.72;71.78;100838.34;112529;1239;21947;-80
2023/03/03 01:41:44;;;;;;;94.00;60.50;;;;;;;0.65;71.78;100841.86;112399;1245;22706;-79
2023/03/03 01:44:16;;;;;;;93.20;61.80;;;;;;;0.62;71.92;100843.20;112067;1245;21955;-80
2023/03/03 01:46:53;;;;;;;;;;;;;;;0.60;72.03;100839.24;112129;1245;23780;-81
2023/03/03 01:49:33;;;;;;;94.30;60.20;;;;;;;0.53;72.25;100830.77;111701;1252;23786;-81
2023/03/03 01:52:32;;;;;;;97.30;65.40;;;;;;;0.56;72.35;100819.34;111732;1246;21982;-80
2023/03/03 01:55:17;;;;;;;103.70;68.90;;;;;;;0.56;72.37;100826.86;112623;1245;21971;-81
2023/03/03 01:57:55;;;;;;;99.20;67.10;;;;;;;0.53;72.23;100833.52;112368;1245;21939;-80
2023/03/03 02:00:27;;;;;;;92.70;61.60;;;;;;;0.53;72.30;100835.73;112178;1245;21952;-80
2023/03/03 02:02:58;;;;;;;85.50;59.50;;;;;;;0.55;72.32;100836.45;112351;1245;21931;-80
2023/03/03 02:05:30;;;;;;;87.20;64.40;;;;;;;0.57;72.31;100837.31;112313;1244;23581;-81
2023/03/03 02:08:02;;;;;;;93.20;63.00;;;;;;;0.56;72.19;100837.81;112518;1238;21959;-81
2023/03/03 02:10:34;;;;;;;;;;;;;;;0.55;72.18;100839.70;113127;1238;22081;-80
2023/03/03 02:13:06;;;;;;;83.60;60.20;;;;;;;0.46;72.37;100834.97;113123;1237;22366;-80
2023/03/03 02:15:35;;;;;;;80.10;57.30;;;;;;;0.42;72.27;100831.33;113140;1238;21967;-81
2023/03/03 02:18:18;;;;;;;74.70;56.40;;;;;;;0.39;72.06;100822.05;113238;1238;21974;-81
2023/03/03 02:21:11;;;;;;;73.70;56.40;;;;;;;0.38;72.16;100820.15;113066;1238;24340;-81
2023/03/03 02:24:25;;;;;;;75.30;56.20;;;;;;;0.42;72.36;100812.49;113398;1234;23811;-80
2023/03/03 02:27:01;;;;;;;66.70;52.10;;;;;;;0.41;72.05;100805.63;113358;1233;21962;-81
2023/03/03 02:29:38;;;;;;;78.90;57.40;;;;;;;0.38;71.99;100803.72;113754;1233;21954;-80
2023/03/03 02:32:13;;;;;;;70.70;54.90;;;;;;;0.38;71.90;100803.90;113187;1239;21983;-80
2023/03/03 02:34:51;;;;;;;73.50;56.00;;;;;;;0.39;71.84;100801.67;112652;1239;22412;-81
2023/03/03 02:37:20;;;;;;;69.30;55.20;;;;;;;0.41;71.82;100808.89;112283;1245;22683;-81
2023/03/03 02:39:50;;;;;;;73.90;57.60;;;;;;;0.43;71.69;100809.95;112064;1245;21969;-80
2023/03/03 02:42:29;;;;;;;67.40;56.20;;;;;;;0.48;71.63;100815.12;112074;1245;22437;-81
2023/03/03 02:45:01;;;;;;;68.20;57.20;;;;;;;0.47;71.50;100827.27;112318;1245;21938;-81
2023/03/03 02:47:32;;;;;;;74.20;56.90;;;;;;;0.46;71.49;100825.90;112361;1245;23636;-80
2023/03/03 02:50:01;;;;;;;68.40;54.60;;;;;;;0.43;71.31;100822.95;112062;1245;23683;-81
2023/03/03 02:52:36;;;;;;;73.50;56.30;;;;;;;0.40;71.43;100823.27;112318;1245;21955;-80
2023/03/03 02:55:06;;;;;;;70.80;57.20;;;;;;;0.38;71.33;100820.68;112593;1245;21981;-81
2023/03/03 02:57:36;;;;;;;71.90;60.00;;;;;;;0.36;71.15;100825.61;112811;1241;22236;-81
2023/03/03 03:00:07;;;;;;;72.60;59.00;;;;;;;0.35;71.23;100826.29;112723;1241;23720;-80
2023/03/03 03:02:36;;;;;;;72.40;59.00;;;;;;;0.38;71.34;100824.27;109074;1232;4995779;-80
2023/03/03 03:05:07;;;;;;;72.60;56.50;;;;;;;0.41;71.28;100823.27;113487;1232;22040;-80
2023/03/03 03:07:41;;;;;;;68.90;57.40;;;;;;;0.42;71.11;100820.71;113408;1233;22724;-80
2023/03/03 03:10:13;;;;;;;76.00;60.30;;;;;;;0.43;71.13;100821.92;113918;1233;23568;-79
2023/03/03 03:12:42;;;;;;;74.90;58.90;;;;;;;0.46;71.11;100830.34;113488;1233;21938;-81
2023/03/03 03:15:15;;;;;;;80.50;60.00;;;;;;;0.45;71.03;100830.00;113525;1233;22053;-79
2023/03/03 03:17:45;;;;;;;70.60;57.50;;;;;;;0.47;71.05;100831.73;113725;1233;21941;-80
2023/03/03 03:20:19;;;;;;;72.90;57.50;;;;;;;0.51;71.07;100838.80;113852;1233;22549;-80
2023/03/03 03:22:48;;;;;;;73.10;56.60;;;;;;;0.55;70.99;100843.80;113598;1233;21972;-80
2023/03/03 03:25:20;;;;;;;67.80;56.00;;;;;;;0.56;70.83;100848.27;113513;1233;23044;-80
2023/03/03 03:27:50;;;;;;;68.80;57.00;;;;;;;0.54;70.77;100844.48;113496;1233;23005;-80
2023/03/03 03:30:21;;;;;;;73.20;57.30;;;;;;;0.51;70.77;100844.96;113894;1233;21968;-81
2023/03/03 03:32:50;;;;;;;76.10;60.80;;;;;;;0.50;70.80;100845.81;113671;1233;21957;-80
2023/03/03 03:35:20;;;;;;;72.70;56.40;;;;;;;0.49;70.74;100843.73;113455;1233;21990;-80
2023/03/03 03:37:49;;;;;;;74.90;59.10;;;;;;;0.49;70.79;100845.97;113785;1233;21966;-80
2023/03/03 03:40:18;;;;;;;73.20;59.30;;;;;;;0.50;70.78;100845.81;113464;1233;21979;-80
2023/03/03 03:42:50;;;;;;;75.60;57.90;;;;;;;0.52;70.82;100848.23;113408;1234;23033;-80
2023/03/03 03:45:19;;;;;;;65.50;52.80;;;;;;;0.53;70.79;100848.24;113672;1233;21935;-82
2023/03/03 03:47:51;;;;;;;69.10;50.80;;;;;;;0.52;70.63;100846.00;113692;1233;21968;-82
2023/03/03 03:50:22;;;;;;;69.40;51.10;;;;;;;0.50;70.78;100834.50;113696;1233;21964;-81
2023/03/03 03:52:54;;;;;;;70.40;52.90;;;;;;;0.49;70.81;100829.70;113684;1233;22001;-81
2023/03/03 03:55:25;;;;;;;72.50;54.00;;;;;;;0.53;70.81;100825.29;112731;1241;21960;-81
2023/03/03 03:57:56;;;;;;;70.80;53.40;;;;;;;0.57;70.86;100825.34;112765;1241;23750;-81
2023/03/03 04:00:26;;;;;;;72.10;54.90;;;;;;;0.62;70.95;100822.13;112807;1240;21990;-81
2023/03/03 04:02:57;;;;;;;72.40;57.40;;;;;;;0.62;70.76;100826.08;113027;1241;21981;-81
2023/03/03 04:05:29;;;;;;;75.70;54.00;;;;;;;0.60;70.66;100823.65;112676;1241;23581;-81
2023/03/03 04:07:58;;;;;;;75.70;54.90;;;;;;;0.60;70.57;100824.33;112732;1232;23030;-81
2023/03/03 04:10:26;;;;;;;77.00;56.80;;;;;;;0.60;70.76;100818.86;112872;1241;21969;-81
2023/03/03 04:12:55;;;;;;;74.50;56.00;;;;;;;0.63;70.85;100818.38;112826;1232;21961;-82
2023/03/03 04:15:29;;;;;;;72.90;54.30;;;;;;;0.66;70.89;100811.39;113402;1233;21935;-82
2023/03/03 04:18:02;;;;;;;71.60;52.40;;;;;;;0.68;70.88;100800.95;113599;1233;21999;-81
2023/03/03 04:20:34;;;;;;;71.30;52.60;;;;;;;0.69;70.79;100799.41;113730;1232;22789;-81
2023/03/03 04:23:03;;;;;;;65.10;48.80;;;;;;;0.70;70.72;100800.27;113786;1233;22304;-81
2023/03/03 04:25:33;;;;;;;74.20;51.80;;;;;;;0.68;70.77;100803.01;113602;1233;21975;-81
2023/03/03 04:28:12;;;;;;;69.20;52.90;;;;;;;0.68;70.73;100808.14;113615;1233;21947;-82
2023/03/03 04:30:46;;;;;;;66.10;49.10;;;;;;;0.64;70.69;100803.66;113509;1233;21975;-82
2023/03/03 04:33:19;;;;;;;70.20;51.40;;;;;;;0.62;70.74;100796.95;113682;1233;22789;-80
2023/03/03 04:35:52;;;;;;;68.20;53.80;;;;;;;0.63;70.87;100792.16;113725;1233;22422;-81
2023/03/03 04:38:21;;;;;;;80.70;57.60;;;;;;;0.66;70.86;100789.96;113570;1233;21975;-81
2023/03/03 04:40:51;;;;;;;83.00;64.00;;;;;;;0.65;70.81;100793.03;113697;1233;21940;-80
2023/03/03 04:43:24;;;;;;;83.70;64.10;;;;;;;0.65;70.92;100788.08;113978;1224;23000;-80
2023/03/03 04:45:54;;;;;;;82.30;60.80;;;;;;;0.68;70.87;100780.05;113467;1233;23571;-81
2023/03/03 04:48:24;;;;;;;76.30;60.90;;;;;;;0.71;70.98;100785.55;113527;1232;21896;-81
2023/03/03 04:50:59;;;;;;;79.30;58.50;;;;;;;0.79;71.01;100786.49;113924;1232;21954;-79
2023/03/03 04:53:28;;;;;;;76.60;58.70;;;;;;;0.83;70.94;100788.41;113582;1232;22085;-79
2023/03/03 04:56:06;;;;;;;78.20;57.60;;;;;;;0.82;70.74;100783.96;113688;1236;24285;-80
2023/03/03 04:58:36;;;;;;;79.30;57.90;;;;;;;0.78;70.72;100783.58;113401;1236;21924;-81
2023/03/03 05:01:05;;;;;;;76.30;59.10;;;;;;;0.77;70.82;100780.65;113151;1236;21967;-80
2023/03/03 05:03:39;;;;;;;84.10;61.40;;;;;;;0.79;70.88;100780.33;113420;1236;22005;-79
2023/03/03 05:06:07;;;;;;;88.60;63.30;;;;;;;0.82;70.90;100777.10;112126;1244;22772;-82
2023/03/03 05:08:35;;;;;;;87.80;64.20;;;;;;;0.84;70.83;100782.41;112108;1244;23700;-80
2023/03/03 05:11:06;;;;;;;93.60;66.90;;;;;;;0.83;70.87;100784.98;112358;1243;21959;-79
2023/03/03 05:13:37;;;;;;;92.30;66.70;;;;;;;0.83;70.74;100785.15;112650;1242;23578;-78
2023/03/03 05:16:07;;;;;;;94.90;66.30;;;;;;;0.81;70.75;100786.16;111774;1248;22606;-79
2023/03/03 05:18:39;;;;;;;91.50;64.80;;;;;;;0.79;70.85;100784.61;112272;1248;21962;-79
2023/03/03 05:21:11;;;;;;;85.30;62.60;;;;;;;0.80;70.94;100790.96;111795;1249;21956;-79
2023/03/03 05:23:40;;;;;;;82.50;63.20;;;;;;;0.81;70.89;100791.65;112021;1248;23690;-79
2023/03/03 05:26:09;;;;;;;87.90;63.00;;;;;;;0.83;71.02;100798.52;111993;1248;21952;-80
2023/03/03 05:28:38;;;;;;;88.40;64.80;;;;;;;0.87;71.12;100798.21;111908;1249;22134;-80
2023/03/03 05:31:09;;;;;;;83.40;62.20;;;;;;;0.89;70.98;100800.80;112136;1242;21959;-80
2023/03/03 05:33:43;;;;;;;87.60;60.10;;;;;;;0.90;71.10;100806.46;112610;1237;21972;-79
2023/03/03 05:36:12;;;;;;;90.00;62.70;;;;;;;0.91;70.93;100810.59;112791;1237;23098;-80
2023/03/03 05:38:41;;;;;;;82.50;60.60;;;;;;;0.87;70.96;100810.89;113139;1237;23626;-79
2023/03/03 05:41:10;;;;;;;86.70;63.60;;;;;;;0.86;70.97;100813.62;113105;1237;23571;-81
2023/03/03 05:43:43;;;;;;;86.00;63.10;;;;;;;0.84;70.98;100818.08;112181;1243;22011;-79
2023/03/03 05:46:12;;;;;;;82.30;62.40;;;;;;;0.79;70.99;100817.16;112410;1240;22049;-79
2023/03/03 05:48:44;;;;;;;87.00;66.00;;;;;;;0.76;71.11;100808.91;112746;1239;21943;-81
2023/03/03 05:51:13;;;;;;;83.10;63.20;;;;;;;0.77;71.16;100812.70;112623;1239;23600;-80
2023/03/03 05:53:42;;;;;;;87.40;63.30;;;;;;;0.79;71.23;100814.25;112251;1239;21953;-79
2023/03/03 05:56:11;;;;;;;85.80;64.20;;;;;;;0.81;71.21;100818.89;112031;1247;21964;-80
2023/03/03 05:58:44;;;;;;;87.60;65.00;;;;;;;0.81;71.26;100823.34;112041;1246;23688;-79
2023/03/03 06:01:13;;;;;;;82.60;62.90;;;;;;;0.82;71.41;100826.42;112229;1241;23091;-79
2023/03/03 06:03:45;;;;;;;81.50;62.30;;;;;;;0.84;71.38;100822.52;112868;1241;22719;-79
2023/03/03 06:06:18;;;;;;;84.30;62.10;;;;;;;0.87;71.44;100817.75;112785;1241;22894;-80
2023/03/03 06:08:47;;;;;;;82.10;60.20;;;;;;;0.89;71.33;100817.25;112861;1241;21947;-81
2023/03/03 06:11:21;;;;;;;76.60;59.00;;;;;;;0.89;71.41;100813.48;113151;1241;22267;-80
2023/03/03 06:13:50;;;;;;;80.50;61.50;;;;;;;0.92;71.53;100805.29;112721;1241;22543;-80
2023/03/03 06:16:25;;;;;;;75.90;57.90;;;;;;;0.97;71.52;100806.02;112841;1241;22012;-80
2023/03/03 06:18:57;;;;;;;75.40;57.10;;;;;;;0.99;71.39;100811.86;112915;1241;21959;-80
2023/03/03 06:21:26;;;;;;;73.40;54.30;;;;;;;0.96;71.34;100819.90;113582;1233;22091;-80
2023/03/03 06:24:01;;;;;;;76.40;58.30;;;;;;;0.95;71.56;100830.17;113125;1241;21977;-81
2023/03/03 06:26:38;;;;;;;86.10;56.20;;;;;;;1.00;71.65;100834.66;112756;1241;21955;-79
2023/03/03 06:29:07;;;;;;;80.50;57.00;;;;;;;1.03;71.41;100838.81;112466;1241;23010;-79
2023/03/03 06:31:36;;;;;;;79.60;59.40;;;;;;;1.06;71.50;100846.89;112063;1246;21984;-79
2023/03/03 06:34:08;;;;;;;83.30;61.60;;;;;;;1.06;71.51;100848.60;112065;1246;21974;-79
2023/03/03 06:36:41;;;;;;;100.00;65.10;;;;;;;1.02;71.48;100852.33;112054;1246;22951;-78
2023/03/03 06:39:11;;;;;;;87.00;62.30;;;;;;;1.02;71.61;100853.54;111900;1246;21954;-79
2023/03/03 06:41:45;;;;;;;86.60;62.00;;;;;;;1.00;71.59;100855.23;112539;1239;21963;-79
2023/03/03 06:44:19;;;;;;;92.40;65.50;;;;;;;1.01;71.66;100855.42;113290;1239;21986;-80
2023/03/03 06:46:48;;;;;;;100.10;73.40;;;;;;;1.04;71.72;100863.33;112243;1247;21952;-80
2023/03/03 06:49:24;;;;;;;91.30;65.90;;;;;;;1.00;71.65;100869.80;111646;1247;22212;-78
2023/03/03 06:51:54;;;;;;;100.20;66.90;;;;;;;1.01;71.74;100855.23;112040;1247;21957;-77
2023/03/03 06:54:31;;;;;;;95.80;66.70;;;;;;;1.03;71.90;100847.02;111832;1247;21983;-78
2023/03/03 06:57:29;;;;;;;89.70;63.00;;;;;;;1.02;71.73;100843.08;111208;1253;23598;-78
2023/03/03 07:00:23;;;;;;;84.90;60.50;;;;;;;0.93;71.62;100831.69;110669;1259;23996;-78
2023/03/03 07:03:11;;;;;;;88.30;59.70;;;;;;;0.83;71.65;100835.02;111022;1257;22019;-77
2023/03/03 07:05:40;;;;;;;89.20;61.00;;;;;;;0.82;71.95;100834.34;111260;1253;22352;-78
2023/03/03 07:08:20;;;;;;;92.50;63.90;;;;;;;0.86;72.00;100834.70;111655;1246;23744;-78
2023/03/03 07:10:51;;;;;;;84.40;57.80;;;;;;;0.86;71.96;100829.23;111480;1252;21982;-78
2023/03/03 07:13:28;;;;;;;83.20;57.60;;;;;;;0.90;72.15;100834.38;111490;1251;23691;-78
2023/03/03 07:16:15;;;;;;;91.90;59.50;;;;;;;0.98;72.24;100837.04;111923;1246;22026;-78
2023/03/03 07:19:02;;;;;;;91.80;60.30;;;;;;;1.03;72.32;100843.61;112228;1244;21972;-78
2023/03/03 07:21:37;;;;;;;90.00;58.10;;;;;;;1.09;72.20;100857.71;112327;1244;23584;-78
2023/03/03 07:24:27;;;;;;;92.40;60.00;;;;;;;1.12;72.20;100855.69;111796;1249;22015;-81
2023/03/03 07:27:18;;;;;;;83.40;56.90;;;;;;;1.19;72.23;100846.82;111775;1249;22164;-78
2023/03/03 07:29:50;;;;;;;82.20;56.50;;;;;;;1.24;72.23;100843.61;112254;1244;21951;-78
2023/03/03 07:32:39;;;;;;;81.80;54.60;;;;;;;1.28;72.12;100846.23;112444;1244;23684;-77
2023/03/03 07:35:45;;;;;;;75.30;51.90;;;;;;;1.26;72.06;100852.03;112311;1244;21950;-78
2023/03/03 07:38:54;;;;;;;75.90;50.00;;;;;;;1.26;71.97;100851.00;112754;1241;25078;-79
2023/03/03 07:41:22;;;;;;;67.20;44.40;;;;;;;1.26;71.89;100855.80;112043;1241;21963;-77
2023/03/03 07:44:13;;;;;;;68.30;47.80;;;;;;;1.27;71.75;100856.33;112801;1241;21950;-77
2023/03/03 07:46:48;;;;;;;66.00;42.90;;;;;;;1.27;71.86;100852.04;112470;1241;23650;-77
2023/03/03 07:49:27;;;;;;;64.50;44.50;;;;;;;1.30;71.87;100852.41;112483;1241;23022;-77
2023/03/03 07:51:59;;;;;;;67.70;46.00;;;;;;;1.33;71.97;100850.04;112546;1241;21967;-77
2023/03/03 07:54:41;;;;;;;70.10;49.60;;;;;;;1.36;71.87;100849.70;112677;1241;21982;-78
2023/03/03 07:57:35;;;;;;;80.60;55.50;;;;;;;1.38;71.75;100851.61;112785;1241;21953;-78
2023/03/03 08:00:15;;;;;;;93.40;58.00;;;;;;;1.38;71.63;100851.95;112573;1241;23610;-78
2023/03/03 08:03:03;;;;;;;82.50;53.80;;;;;;;1.37;71.62;100850.41;112814;1241;23594;-79
2023/03/03 08:05:37;;;;;;;79.20;51.50;;;;;;;1.38;71.71;100855.55;112876;1240;21948;-78
2023/03/03 08:08:35;;;;;;;;;;;;;;;1.40;71.51;100858.30;112917;1240;22806;-79
2023/03/03 08:11:04;;;;;;;70.70;48.80;;;;;;;1.33;71.66;100856.03;112554;1241;23678;-78
2023/03/03 08:13:42;;;;;;;71.40;47.90;;;;;;;1.35;71.71;100860.17;112560;1241;21955;-77
2023/03/03 08:16:10;;;;;;;67.40;49.40;;;;;;;1.38;71.62;100866.02;112788;1241;21958;-77
2023/03/03 08:18:48;;;;;;;65.10;45.60;;;;;;;1.40;71.47;100860.20;113207;1233;22800;-78
2023/03/03 08:21:26;;;;;;;49.70;35.50;;;;;;;1.42;71.43;100860.73;113616;1233;21949;-77
2023/03/03 08:23:54;;;;;;;48.60;35.30;;;;;;;1.42;71.21;100861.44;113635;1233;23693;-78
2023/03/03 08:26:26;;;;;;;49.60;35.80;;;;;;;1.41;71.08;100862.96;112825;1231;21940;-79
2023/03/03 08:28:54;;;;;;;52.10;33.70;;;;;;;1.40;70.95;100866.03;112999;1238;23007;-77
2023/03/03 08:31:25;;;;;;;47.90;32.20;;;;;;;1.39;70.98;100865.50;112871;1239;22002;-79
2023/03/03 08:34:09;;;;;;;47.50;33.70;;;;;;;1.39;70.88;100867.56;112436;1243;22697;-77
2023/03/03 08:36:37;;;;;;;53.50;40.50;;;;;;;1.41;70.88;100870.00;112771;1243;21949;-78
2023/03/03 08:39:10;;;;;;;55.40;40.50;;;;;;;1.41;70.70;100864.16;112195;1243;21992;-77
2023/03/03 08:41:42;;;;;;;49.50;37.90;;;;;;;1.43;70.80;100861.27;112144;1243;22057;-77
2023/03/03 08:44:16;;;;;;;51.00;36.80;;;;;;;1.48;70.92;100858.90;111890;1243;22994;-78
2023/03/03 08:46:45;;;;;;;54.80;37.60;;;;;;;1.55;70.87;100860.66;112137;1242;21955;-78
2023/03/03 08:49:13;;;;;;;52.40;35.80;;;;;;;1.59;70.73;100863.26;112775;1242;22144;-78
2023/03/03 08:51:51;;;;;;;49.00;38.00;;;;;;;1.59;70.74;100861.20;112809;1235;21953;-79
2023/03/03 08:54:20;;;;;;;55.00;39.00;;;;;;;1.61;70.51;100858.81;112100;1244;21999;-77
2023/03/03 08:56:49;;;;;;;55.10;40.40;;;;;;;1.57;70.23;100861.70;112275;1244;21979;-77
2023/03/03 08:59:19;;;;;;;52.70;41.80;;;;;;;1.55;70.15;100863.40;112216;1244;21977;-77
2023/03/03 09:01:51;;;;;;;59.80;42.30;;;;;;;1.54;70.22;100863.05;112109;1241;21962;-77
2023/03/03 09:04:22;;;;;;;62.10;43.10;;;;;;;1.55;70.11;100865.46;112803;1236;21928;-78
2023/03/03 09:06:54;;;;;;;57.70;41.20;;;;;;;1.58;70.35;100865.32;112932;1237;23052;-78
2023/03/03 09:09:23;;;;;;;62.50;45.00;;;;;;;1.63;70.42;100872.90;113196;1237;21990;-78
2023/03/03 09:11:58;;;;;;;47.20;35.70;;;;;;;1.68;70.53;100875.84;113202;1237;21967;-79
2023/03/03 09:14:37;;;;;;;59.50;43.80;;;;;;;1.73;70.34;100875.70;113310;1236;21956;-77
2023/03/03 09:17:37;;;;;;;52.90;40.60;;;;;;;1.69;70.14;100871.91;112904;1237;21942;-77
2023/03/03 09:20:48;;;;;;;56.60;41.70;;;;;;;1.68;70.20;100877.58;113021;1237;23588;-78
2023/03/03 09:23:29;;;;;;;51.40;35.90;;;;;;;1.61;69.80;100880.27;113206;1236;21969;-79
2023/03/03 09:26:30;;;;;;;49.80;34.90;;;;;;;1.54;69.89;100887.07;113383;1233;21975;-77
2023/03/03 09:29:20;;;;;;;50.30;33.90;;;;;;;1.50;69.83;100893.56;113551;1233;23677;-77
2023/03/03 09:32:02;;;;;;;50.80;38.00;;;;;;;1.48;70.04;100897.15;113563;1233;21989;-77
2023/03/03 09:34:39;;;;;;;48.80;34.70;;;;;;;1.50;70.02;100899.90;113368;1233;21982;-76
2023/03/03 09:37:22;;;;;;;;;;;;;;;1.51;69.93;100892.19;113553;1233;21920;-76
2023/03/03 09:39:56;;;;;;;50.60;33.90;;;;;;;1.40;69.90;100890.05;113591;1233;23008;-75
2023/03/03 09:42:50;;;;;;;61.00;38.60;;;;;;;1.34;69.89;100887.59;113433;1232;21943;-77
2023/03/03 09:46:14;;;;;;;51.20;37.70;;;;;;;1.35;70.06;100884.35;113418;1232;21939;-76
2023/03/03 09:49:06;;;;;;;55.60;37.50;;;;;;;1.43;70.37;100886.82;112303;1245;21978;-76
2023/03/03 09:51:52;;;;;;;52.20;35.50;;;;;;;1.46;70.18;100887.70;112146;1245;22961;-76
2023/03/03 09:54:55;;;;;;;44.80;32.70;;;;;;;1.47;70.08;100886.16;112315;1245;22537;-75
2023/03/03 09:58:09;;;;;;;42.10;33.00;;;;;;;1.39;69.70;100885.92;111317;1254;21948;-75
2023/03/03 10:01:06;;;;;;;47.40;34.10;;;;;;;1.29;69.74;100884.98;111241;1254;21949;-75
2023/03/03 10:03:56;;;;;;;51.00;40.30;;;;;;;1.24;70.04;100882.02;111133;1254;21974;-76
2023/03/03 10:06:41;;;;;;;50.70;38.00;;;;;;;1.21;70.00;100882.67;110811;1259;22972;-75
2023/03/03 10:09:36;;;;;;;52.80;37.70;;;;;;;1.23;70.24;100880.30;110324;1265;22888;-75
2023/03/03 10:13:11;;;;;;;43.10;31.90;;;;;;;1.28;70.35;100879.48;109611;1269;23046;-75
2023/03/03 10:15:54;;;;;;;42.20;32.00;;;;;;;1.29;70.23;100877.95;109577;1269;21995;-78
2023/03/03 10:18:52;;;;;;;41.30;32.70;;;;;;;1.33;70.22;100881.77;109548;1271;22047;-75
2023/03/03 10:21:49;;;;;;;42.60;31.90;;;;;;;1.38;70.40;100879.40;109457;1271;23613;-75
2023/03/03 10:24:31;;;;;;;41.50;31.30;;;;;;;1.42;70.28;100883.71;109831;1260;23802;-75
2023/03/03 10:27:48;;;;;;;38.10;30.10;;;;;;;1.45;70.10;100888.19;110850;1254;23121;-75
2023/03/03 10:30:38;;;;;;;40.60;31.30;;;;;;;1.42;69.86;100895.21;110861;1260;22000;-75
2023/03/03 10:33:44;;;;;;;42.00;31.30;;;;;;;1.46;70.17;100898.17;110410;1265;21981;-74
2023/03/03 10:36:34;;;;;;;44.90;32.70;;;;;;;1.47;69.98;100892.33;110560;1259;23067;-76
2023/03/03 10:39:32;;;;;;;42.40;31.70;;;;;;;1.37;69.60;100888.48;111014;1259;21969;-74
2023/03/03 10:42:38;;;;;;;45.10;34.00;;;;;;;1.27;69.72;100886.52;110916;1259;23780;-75
2023/03/03 10:45:39;;;;;;;47.50;36.30;;;;;;;1.25;69.82;100883.23;110784;1261;23044;-75
2023/03/03 10:48:31;;;;;;;39.30;32.40;;;;;;;1.24;69.77;100877.05;110742;1261;23731;-75
2023/03/03 10:51:08;;;;;;;44.70;33.70;;;;;;;1.27;70.11;100875.88;110184;1260;21995;-76
2023/03/03 10:53:41;;;;;;;40.20;32.10;;;;;;;1.26;69.83;100871.57;111398;1252;21988;-75
2023/03/03 10:56:34;;;;;;;54.40;35.80;;;;;;;1.20;69.69;100873.23;111705;1253;22168;-76
2023/03/03 11:00:06;;;;;;;48.00;36.20;;;;;;;1.21;70.22;100871.88;111451;1252;24224;-75
2023/03/03 11:03:06;;;;;;;47.60;35.00;;;;;;;1.30;70.51;100866.64;111402;1252;21960;-76
2023/03/03 11:06:10;;;;;;;43.40;33.80;;;;;;;1.32;70.07;100866.14;111408;1252;22722;-76
2023/03/03 11:09:02;;;;;;;47.60;36.10;;;;;;;1.33;70.13;100868.04;112630;1238;21967;-75
2023/03/03 11:11:54;;;;;;;52.90;36.50;;;;;;;1.35;70.18;100869.26;112663;1239;22193;-78
2023/03/03 11:14:46;;;;;;;51.90;40.50;;;;;;;1.39;70.07;100864.48;113217;1239;21965;-75
2023/03/03 11:17:41;;;;;;;50.90;35.40;;;;;;;1.35;70.02;100862.74;112967;1239;23770;-76
2023/03/03 11:20:19;;;;;;;46.30;32.90;;;;;;;1.34;69.94;100857.06;113093;1239;21968;-76
2023/03/03 11:23:20;;;;;;;44.00;32.60;;;;;;;1.34;70.14;100855.35;113125;1239;21973;-76
2023/03/03 11:26:08;;;;;;;49.20;30.60;;;;;;;1.39;70.20;100857.11;112858;1239;23025;-76
2023/03/03 11:29:21;;;;;;;36.00;26.50;;;;;;;1.40;69.97;100855.06;113191;1233;21954;-76
2023/03/03 11:32:23;;;;;;;36.80;24.90;;;;;;;1.31;69.94;100850.36;113793;1233;21975;-77
2023/03/03 11:35:23;;;;;;;36.60;25.80;;;;;;;1.30;70.03;100844.52;113514;1233;22697;-77
2023/03/03 11:37:58;;;;;;;36.20;27.80;;;;;;;1.25;69.93;100840.37;112809;1241;23779;-76
2023/03/03 11:41:06;;;;;;;40.60;29.90;;;;;;;1.22;69.94;100838.96;112968;1241;22972;-77
2023/03/03 11:44:23;;;;;;;44.10;31.60;;;;;;;1.22;70.02;100835.20;112033;1247;21958;-82
2023/03/03 11:47:34;;;;;;;46.30;27.10;;;;;;;1.21;70.00;100839.30;112238;1248;22001;-81
2023/03/03 11:50:47;;;;;;;45.40;32.20;;;;;;;1.23;70.28;100836.23;112284;1247;21980;-75
2023/03/03 11:53:40;;;;;;;44.20;29.90;;;;;;;1.24;70.18;100835.89;111372;1252;22007;-76
2023/03/03 11:56:35;;;;;;;;;;;;;;;1.24;70.14;100836.58;111211;1256;22379;-78
2023/03/03 11:59:41;;;;;;;46.80;33.30;;;;;;;1.22;70.54;100832.11;111217;1256;21982;-77
2023/03/03 12:02:44;;;;;;;43.20;31.60;;;;;;;1.23;70.22;100831.43;111246;1256;21972;-80
2023/03/03 12:05:50;;;;;;;47.80;33.60;;;;;;;1.24;70.44;100826.64;111048;1255;23551;-77